sensor_id;sensor_type;location;lat;lon;timestamp;temperature;humidity
1225;DHT22;602;48.000;7.840;2023-04-01T00:01:16;10.30;99.90
1225;DHT22;602;48.000;7.840;2023-04-01T00:03:43;10.30;99.90
1225;DHT22;602;48.000;7.840;2023-04-01T00:06:11;10.30;99.90
1225;DHT22;602;48.000;7.840;2023-04-01T00:08:39;10.20;99.90
1225;DHT22;602;48.000;7.840;2023-04-01T00:11:06;10.10;99.90
1225;DHT22;602;48.000;7.840;2023-04-01T00:13:33;9.90;99.90
1225;DHT22;602;48.000;7.840;2023-04-01T00:15:59;9.90;99.90
1225;DHT22;602;48.000;7.840;2023-04-01T00:18:29;10.00;99.90
1225;DHT22;602;48.000;7.840;2023-04-01T00:20:56;9.90;99.90
1225;DHT22;602;48.000;7.840;2023-04-01T00:23:23;9.90;99.90
1225;DHT22;602;48.000;7.840;2023-04-01T00:25:50;9.90;99.90
1225;DHT22;602;48.000;7.840;2023-04-01T00:28:19;9.90;99.90
1225;DHT22;602;48.000;7.840;2023-04-01T00:30:47;9.90;99.90
1225;DHT22;602;48.000;7.840;2023-04-01T00:33:14;9.90;99.90
1225;DHT22;602;48.000;7.840;2023-04-01T00:35:43;9.80;99.90
1225;DHT22;602;48.000;7.840;2023-04-01T00:38:10;9.90;99.90
1225;DHT22;602;48.000;7.840;2023-04-01T00:40:38;9.80;99.90
1225;DHT22;602;48.000;7.840;2023-04-01T00:43:11;9.80;99.90
1225;DHT22;602;48.000;7.840;2023-04-01T00:45:40;9.80;99.90
1225;DHT22;602;48.000;7.840;2023-04-01T00:48:11;9.80;99.90
1225;DHT22;602;48.000;7.840;2023-04-01T00:50:40;9.80;99.90
1225;DHT22;602;48.000;7.840;2023-04-01T00:53:11;9.80;99.90
1225;DHT22;602;48.000;7.840;2023-04-01T00:55:42;9.80;99.90
1225;DHT22;602;48.000;7.840;2023-04-01T00:58:14;9.80;99.90
1225;DHT22;602;48.000;7.840;2023-04-01T01:00:42;9.70;99.90
1225;DHT22;602;48.000;7.840;2023-04-01T01:03:09;9.70;99.90
1225;DHT22;602;48.000;7.840;2023-04-01T01:05:47;9.80;99.90
1225;DHT22;602;48.000;7.840;2023-04-01T01:08:28;9.90;99.90
1225;DHT22;602;48.000;7.840;2023-04-01T01:10:56;9.90;99.90
1225;DHT22;602;48.000;7.840;2023-04-01T01:13:26;9.90;99.90
1225;DHT22;602;48.000;7.840;2023-04-01T01:15:59;9.90;99.90
1225;DHT22;602;48.000;7.840;2023-04-01T01:18:34;10.00;99.90
1225;DHT22;602;48.000;7.840;2023-04-01T01:21:30;9.90;99.90
1225;DHT22;602;48.000;7.840;2023-04-01T01:24:22;9.90;99.90
1225;DHT22;602;48.000;7.840;2023-04-01T01:26:59;9.90;99.90
1225;DHT22;602;48.000;7.840;2023-04-01T01:30:03;9.90;99.90
1225;DHT22;602;48.000;7.840;2023-04-01T01:32:54;9.80;99.90
1225;DHT22;602;48.000;7.840;2023-04-01T01:35:27;9.90;99.90
1225;DHT22;602;48.000;7.840;2023-04-01T01:37:58;9.90;99.90
1225;DHT22;602;48.000;7.840;2023-04-01T01:40:27;9.90;99.90
1225;DHT22;602;48.000;7.840;2023-04-01T01:43:02;9.90;99.90
1225;DHT22;602;48.000;7.840;2023-04-01T01:45:33;9.80;99.90
1225;DHT22;602;48.000;7.840;2023-04-01T01:48:02;9.80;99.90
1225;DHT22;602;48.000;7.840;2023-04-01T01:50:33;9.80;99.90
1225;DHT22;602;48.000;7.840;2023-04-01T01:53:02;9.80;99.90
1225;DHT22;602;48.000;7.840;2023-04-01T01:55:30;9.80;99.90
1225;DHT22;602;48.000;7.840;2023-04-01T01:58:00;9.80;99.90
1225;DHT22;602;48.000;7.840;2023-04-01T02:00:29;9.90;99.90
1225;DHT22;602;48.000;7.840;2023-04-01T02:02:57;10.00;99.90
1225;DHT22;602;48.000;7.840;2023-04-01T02:05:26;10.00;99.90
1225;DHT22;602;48.000;7.840;2023-04-01T02:08:00;10.00;99.90
1225;DHT22;602;48.000;7.840;2023-04-01T02:10:31;10.10;99.90
1225;DHT22;602;48.000;7.840;2023-04-01T02:13:01;10.00;99.90
1225;DHT22;602;48.000;7.840;2023-04-01T02:15:31;10.10;99.90
1225;DHT22;602;48.000;7.840;2023-04-01T02:17:59;10.10;99.90
1225;DHT22;602;48.000;7.840;2023-04-01T02:20:27;10.10;99.90
1225;DHT22;602;48.000;7.840;2023-04-01T02:22:57;10.10;99.90
1225;DHT22;602;48.000;7.840;2023-04-01T02:25:26;10.00;99.90
1225;DHT22;602;48.000;7.840;2023-04-01T02:27:55;10.00;99.90
1225;DHT22;602;48.000;7.840;2023-04-01T02:30:24;10.00;99.90
1225;DHT22;602;48.000;7.840;2023-04-01T02:32:52;10.00;99.90
1225;DHT22;602;48.000;7.840;2023-04-01T02:35:20;10.00;99.90
1225;DHT22;602;48.000;7.840;2023-04-01T02:37:49;10.00;99.90
1225;DHT22;602;48.000;7.840;2023-04-01T02:40:18;9.90;99.90
1225;DHT22;602;48.000;7.840;2023-04-01T02:42:45;9.90;99.90
1225;DHT22;602;48.000;7.840;2023-04-01T02:45:13;9.90;99.90
1225;DHT22;602;48.000;7.840;2023-04-01T02:47:40;9.90;99.90
1225;DHT22;602;48.000;7.840;2023-04-01T02:50:08;9.90;99.90
1225;DHT22;602;48.000;7.840;2023-04-01T02:52:35;9.90;99.90
1225;DHT22;602;48.000;7.840;2023-04-01T02:55:02;9.80;99.90
1225;DHT22;602;48.000;7.840;2023-04-01T02:57:31;9.80;99.90
1225;DHT22;602;48.000;7.840;2023-04-01T02:59:57;9.80;99.90
1225;DHT22;602;48.000;7.840;2023-04-01T03:02:24;9.80;99.90
1225;DHT22;602;48.000;7.840;2023-04-01T03:04:51;9.80;99.90
1225;DHT22;602;48.000;7.840;2023-04-01T03:07:18;9.80;99.90
1225;DHT22;602;48.000;7.840;2023-04-01T03:09:45;9.80;99.90
1225;DHT22;602;48.000;7.840;2023-04-01T03:12:12;9.80;99.90
1225;DHT22;602;48.000;7.840;2023-04-01T03:14:40;9.80;99.90
1225;DHT22;602;48.000;7.840;2023-04-01T03:17:07;9.80;99.90
1225;DHT22;602;48.000;7.840;2023-04-01T03:19:34;9.80;99.90
1225;DHT22;602;48.000;7.840;2023-04-01T03:22:00;9.80;99.90
1225;DHT22;602;48.000;7.840;2023-04-01T03:24:27;9.80;99.90
1225;DHT22;602;48.000;7.840;2023-04-01T03:26:54;9.70;99.90
1225;DHT22;602;48.000;7.840;2023-04-01T03:29:21;9.70;99.90
1225;DHT22;602;48.000;7.840;2023-04-01T03:31:49;9.70;99.90
1225;DHT22;602;48.000;7.840;2023-04-01T03:34:16;9.60;99.90
1225;DHT22;602;48.000;7.840;2023-04-01T03:36:43;9.50;99.90
1225;DHT22;602;48.000;7.840;2023-04-01T03:39:10;9.60;99.90
1225;DHT22;602;48.000;7.840;2023-04-01T03:41:37;9.60;99.90
1225;DHT22;602;48.000;7.840;2023-04-01T03:44:04;9.60;99.90
1225;DHT22;602;48.000;7.840;2023-04-01T03:46:31;9.50;99.90
1225;DHT22;602;48.000;7.840;2023-04-01T03:48:59;9.50;99.90
1225;DHT22;602;48.000;7.840;2023-04-01T03:51:26;9.50;99.90
1225;DHT22;602;48.000;7.840;2023-04-01T03:53:52;9.40;99.90
1225;DHT22;602;48.000;7.840;2023-04-01T03:56:19;9.40;99.90
1225;DHT22;602;48.000;7.840;2023-04-01T03:58:46;9.40;99.90
1225;DHT22;602;48.000;7.840;2023-04-01T04:01:14;9.40;99.90
1225;DHT22;602;48.000;7.840;2023-04-01T04:03:41;9.40;99.90
1225;DHT22;602;48.000;7.840;2023-04-01T04:06:12;9.30;99.90
1225;DHT22;602;48.000;7.840;2023-04-01T04:08:39;9.30;99.90
1225;DHT22;602;48.000;7.840;2023-04-01T04:11:06;9.30;99.90
1225;DHT22;602;48.000;7.840;2023-04-01T04:13:33;9.30;99.90
1225;DHT22;602;48.000;7.840;2023-04-01T04:16:01;9.30;99.90
1225;DHT22;602;48.000;7.840;2023-04-01T04:18:29;9.20;99.90
1225;DHT22;602;48.000;7.840;2023-04-01T04:20:55;9.30;99.90
1225;DHT22;602;48.000;7.840;2023-04-01T04:23:24;9.20;99.90
1225;DHT22;602;48.000;7.840;2023-04-01T04:25:55;9.30;99.90
1225;DHT22;602;48.000;7.840;2023-04-01T04:28:22;9.30;99.90
1225;DHT22;602;48.000;7.840;2023-04-01T04:30:49;9.30;99.90
1225;DHT22;602;48.000;7.840;2023-04-01T04:33:16;9.40;99.90
1225;DHT22;602;48.000;7.840;2023-04-01T04:35:43;9.30;99.90
1225;DHT22;602;48.000;7.840;2023-04-01T04:38:10;9.30;99.90
1225;DHT22;602;48.000;7.840;2023-04-01T04:40:39;9.40;99.90
1225;DHT22;602;48.000;7.840;2023-04-01T04:43:06;9.30;99.90
1225;DHT22;602;48.000;7.840;2023-04-01T04:45:33;9.30;99.90
1225;DHT22;602;48.000;7.840;2023-04-01T04:48:00;9.40;99.90
1225;DHT22;602;48.000;7.840;2023-04-01T04:50:27;9.40;99.90
1225;DHT22;602;48.000;7.840;2023-04-01T04:52:54;9.40;99.90
1225;DHT22;602;48.000;7.840;2023-04-01T04:55:21;9.40;99.90
1225;DHT22;602;48.000;7.840;2023-04-01T04:57:49;9.50;99.90
1225;DHT22;602;48.000;7.840;2023-04-01T05:00:17;9.40;99.90
1225;DHT22;602;48.000;7.840;2023-04-01T05:02:44;9.40;99.90
1225;DHT22;602;48.000;7.840;2023-04-01T05:05:11;9.40;99.90
1225;DHT22;602;48.000;7.840;2023-04-01T05:07:37;9.40;99.90
1225;DHT22;602;48.000;7.840;2023-04-01T05:10:05;9.40;99.90
1225;DHT22;602;48.000;7.840;2023-04-01T05:12:32;9.40;99.90
1225;DHT22;602;48.000;7.840;2023-04-01T05:15:03;9.40;99.90
1225;DHT22;602;48.000;7.840;2023-04-01T05:17:30;9.50;99.90
1225;DHT22;602;48.000;7.840;2023-04-01T05:19:57;9.50;99.90
1225;DHT22;602;48.000;7.840;2023-04-01T05:22:24;9.50;99.90
1225;DHT22;602;48.000;7.840;2023-04-01T05:24:51;9.40;99.90
1225;DHT22;602;48.000;7.840;2023-04-01T05:27:18;9.50;99.90
1225;DHT22;602;48.000;7.840;2023-04-01T05:29:44;9.50;99.90
1225;DHT22;602;48.000;7.840;2023-04-01T05:32:13;9.50;99.90
1225;DHT22;602;48.000;7.840;2023-04-01T05:34:40;9.50;99.90
1225;DHT22;602;48.000;7.840;2023-04-01T05:37:07;9.50;99.90
1225;DHT22;602;48.000;7.840;2023-04-01T05:39:36;9.50;99.90
1225;DHT22;602;48.000;7.840;2023-04-01T05:42:05;9.50;99.90
1225;DHT22;602;48.000;7.840;2023-04-01T05:44:32;9.50;99.90
1225;DHT22;602;48.000;7.840;2023-04-01T05:46:59;9.50;99.90
1225;DHT22;602;48.000;7.840;2023-04-01T05:49:28;9.60;99.90
1225;DHT22;602;48.000;7.840;2023-04-01T05:51:55;9.60;99.90
1225;DHT22;602;48.000;7.840;2023-04-01T05:54:22;9.70;99.90
1225;DHT22;602;48.000;7.840;2023-04-01T05:56:50;9.80;99.90
1225;DHT22;602;48.000;7.840;2023-04-01T05:59:17;9.80;99.90
1225;DHT22;602;48.000;7.840;2023-04-01T06:01:44;9.80;99.90
1225;DHT22;602;48.000;7.840;2023-04-01T06:04:14;9.80;99.90
1225;DHT22;602;48.000;7.840;2023-04-01T06:06:43;9.80;99.90
1225;DHT22;602;48.000;7.840;2023-04-01T06:09:14;9.80;99.90
1225;DHT22;602;48.000;7.840;2023-04-01T06:11:51;9.80;99.90
1225;DHT22;602;48.000;7.840;2023-04-01T06:14:28;9.80;99.90
1225;DHT22;602;48.000;7.840;2023-04-01T06:17:07;9.90;99.90
1225;DHT22;602;48.000;7.840;2023-04-01T06:19:44;9.90;99.90
1225;DHT22;602;48.000;7.840;2023-04-01T06:22:26;9.90;99.90
1225;DHT22;602;48.000;7.840;2023-04-01T06:25:10;10.00;99.90
1225;DHT22;602;48.000;7.840;2023-04-01T06:27:48;10.00;99.90
1225;DHT22;602;48.000;7.840;2023-04-01T06:30:34;10.00;99.90
1225;DHT22;602;48.000;7.840;2023-04-01T06:33:27;10.00;99.90
1225;DHT22;602;48.000;7.840;2023-04-01T06:36:13;10.10;99.90
1225;DHT22;602;48.000;7.840;2023-04-01T06:39:06;10.00;99.90
1225;DHT22;602;48.000;7.840;2023-04-01T06:42:10;10.00;99.90
1225;DHT22;602;48.000;7.840;2023-04-01T06:44:45;10.10;99.90
1225;DHT22;602;48.000;7.840;2023-04-01T06:47:27;10.10;99.90
1225;DHT22;602;48.000;7.840;2023-04-01T06:50:02;10.10;99.90
1225;DHT22;602;48.000;7.840;2023-04-01T06:52:38;10.10;99.90
1225;DHT22;602;48.000;7.840;2023-04-01T06:55:21;10.10;99.90
1225;DHT22;602;48.000;7.840;2023-04-01T06:57:53;10.20;99.90
1225;DHT22;602;48.000;7.840;2023-04-01T07:00:29;10.20;99.90
1225;DHT22;602;48.000;7.840;2023-04-01T07:03:02;10.20;99.90
1225;DHT22;602;48.000;7.840;2023-04-01T07:05:33;10.30;99.90
1225;DHT22;602;48.000;7.840;2023-04-01T07:08:03;10.20;99.90
1225;DHT22;602;48.000;7.840;2023-04-01T07:10:38;10.20;99.90
1225;DHT22;602;48.000;7.840;2023-04-01T07:13:15;10.30;99.90
1225;DHT22;602;48.000;7.840;2023-04-01T07:15:54;10.30;99.90
1225;DHT22;602;48.000;7.840;2023-04-01T07:18:25;10.30;99.90
1225;DHT22;602;48.000;7.840;2023-04-01T07:20:55;10.30;99.90
1225;DHT22;602;48.000;7.840;2023-04-01T07:23:26;10.40;99.90
1225;DHT22;602;48.000;7.840;2023-04-01T07:25:56;10.40;99.90
1225;DHT22;602;48.000;7.840;2023-04-01T07:31:14;10.40;99.90
1225;DHT22;602;48.000;7.840;2023-04-01T07:34:01;10.40;99.90
1225;DHT22;602;48.000;7.840;2023-04-01T07:36:40;10.40;99.90
1225;DHT22;602;48.000;7.840;2023-04-01T07:39:21;10.50;99.90
1225;DHT22;602;48.000;7.840;2023-04-01T07:41:56;10.50;99.90
1225;DHT22;602;48.000;7.840;2023-04-01T07:44:31;10.50;99.90
1225;DHT22;602;48.000;7.840;2023-04-01T07:47:29;10.60;99.90
1225;DHT22;602;48.000;7.840;2023-04-01T07:50:10;10.60;99.90
1225;DHT22;602;48.000;7.840;2023-04-01T07:52:44;10.60;99.90
1225;DHT22;602;48.000;7.840;2023-04-01T07:55:18;10.60;99.90
1225;DHT22;602;48.000;7.840;2023-04-01T07:57:52;10.60;99.90
1225;DHT22;602;48.000;7.840;2023-04-01T08:00:24;10.60;99.90
1225;DHT22;602;48.000;7.840;2023-04-01T08:03:10;10.70;99.90
1225;DHT22;602;48.000;7.840;2023-04-01T08:05:45;10.70;99.90
1225;DHT22;602;48.000;7.840;2023-04-01T08:08:19;10.70;99.90
1225;DHT22;602;48.000;7.840;2023-04-01T08:10:51;10.80;99.90
1225;DHT22;602;48.000;7.840;2023-04-01T08:13:30;10.80;99.90
1225;DHT22;602;48.000;7.840;2023-04-01T08:16:06;10.80;99.90
1225;DHT22;602;48.000;7.840;2023-04-01T08:18:43;10.80;99.90
1225;DHT22;602;48.000;7.840;2023-04-01T08:21:14;10.80;99.90
1225;DHT22;602;48.000;7.840;2023-04-01T08:23:44;10.70;99.90
1225;DHT22;602;48.000;7.840;2023-04-01T08:26:18;10.90;99.90
1225;DHT22;602;48.000;7.840;2023-04-01T08:32:24;11.00;99.90
1225;DHT22;602;48.000;7.840;2023-04-01T08:35:14;11.00;99.90
1225;DHT22;602;48.000;7.840;2023-04-01T08:41:37;10.90;99.90
1225;DHT22;602;48.000;7.840;2023-04-01T08:45:04;10.90;99.90
1225;DHT22;602;48.000;7.840;2023-04-01T08:51:00;10.90;99.90
1225;DHT22;602;48.000;7.840;2023-04-01T08:53:43;11.00;99.90
1225;DHT22;602;48.000;7.840;2023-04-01T08:56:17;11.00;99.90
1225;DHT22;602;48.000;7.840;2023-04-01T08:58:54;11.00;99.90
1225;DHT22;602;48.000;7.840;2023-04-01T09:01:50;11.10;99.90
1225;DHT22;602;48.000;7.840;2023-04-01T09:04:26;11.10;99.90
1225;DHT22;602;48.000;7.840;2023-04-01T09:07:12;11.10;99.90
1225;DHT22;602;48.000;7.840;2023-04-01T09:12:54;11.20;99.90
1225;DHT22;602;48.000;7.840;2023-04-01T09:16:05;11.20;99.90
1225;DHT22;602;48.000;7.840;2023-04-01T09:19:07;11.20;99.90
1225;DHT22;602;48.000;7.840;2023-04-01T09:27:44;11.30;99.90
1225;DHT22;602;48.000;7.840;2023-04-01T09:30:31;11.30;99.90
1225;DHT22;602;48.000;7.840;2023-04-01T09:33:29;11.40;99.90
1225;DHT22;602;48.000;7.840;2023-04-01T09:36:09;11.30;99.90
1225;DHT22;602;48.000;7.840;2023-04-01T09:38:49;11.30;99.90
1225;DHT22;602;48.000;7.840;2023-04-01T09:41:29;11.30;99.90
1225;DHT22;602;48.000;7.840;2023-04-01T09:44:01;11.40;99.90
1225;DHT22;602;48.000;7.840;2023-04-01T09:46:44;11.30;99.90
1225;DHT22;602;48.000;7.840;2023-04-01T09:49:54;11.30;99.90
1225;DHT22;602;48.000;7.840;2023-04-01T09:52:28;11.30;99.90
1225;DHT22;602;48.000;7.840;2023-04-01T09:55:21;11.30;99.90
1225;DHT22;602;48.000;7.840;2023-04-01T10:04:30;11.40;99.90
1225;DHT22;602;48.000;7.840;2023-04-01T10:07:41;11.40;99.90
1225;DHT22;602;48.000;7.840;2023-04-01T10:10:36;11.50;99.90
1225;DHT22;602;48.000;7.840;2023-04-01T10:17:02;11.50;99.90
1225;DHT22;602;48.000;7.840;2023-04-01T10:22:59;11.50;99.90
1225;DHT22;602;48.000;7.840;2023-04-01T10:25:53;11.50;99.90
1225;DHT22;602;48.000;7.840;2023-04-01T10:28:36;11.50;99.90
1225;DHT22;602;48.000;7.840;2023-04-01T10:31:30;11.50;99.90
1225;DHT22;602;48.000;7.840;2023-04-01T10:34:23;11.50;99.90
1225;DHT22;602;48.000;7.840;2023-04-01T10:36:56;11.50;99.90
1225;DHT22;602;48.000;7.840;2023-04-01T10:39:35;11.50;99.90
1225;DHT22;602;48.000;7.840;2023-04-01T10:42:39;11.40;99.90
1225;DHT22;602;48.000;7.840;2023-04-01T10:51:44;11.40;99.90
1225;DHT22;602;48.000;7.840;2023-04-01T10:54:29;11.40;99.90
1225;DHT22;602;48.000;7.840;2023-04-01T10:57:12;11.40;99.90
1225;DHT22;602;48.000;7.840;2023-04-01T11:00:17;11.40;99.90
1225;DHT22;602;48.000;7.840;2023-04-01T11:09:26;11.50;99.90
1225;DHT22;602;48.000;7.840;2023-04-01T11:12:21;11.50;99.90
1225;DHT22;602;48.000;7.840;2023-04-01T11:15:21;11.50;99.90
1225;DHT22;602;48.000;7.840;2023-04-01T11:24:15;11.40;99.90
1225;DHT22;602;48.000;7.840;2023-04-01T11:26:54;11.50;99.90
1225;DHT22;602;48.000;7.840;2023-04-01T11:29:45;11.50;99.90
1225;DHT22;602;48.000;7.840;2023-04-01T11:32:29;11.40;99.90
1225;DHT22;602;48.000;7.840;2023-04-01T11:38:07;11.40;99.90
1225;DHT22;602;48.000;7.840;2023-04-01T11:40:46;11.40;99.90
1225;DHT22;602;48.000;7.840;2023-04-01T11:43:16;11.40;99.90
1225;DHT22;602;48.000;7.840;2023-04-01T11:45:51;11.40;99.90
1225;DHT22;602;48.000;7.840;2023-04-01T11:48:43;11.50;99.90
1225;DHT22;602;48.000;7.840;2023-04-01T11:51:36;11.50;99.90
1225;DHT22;602;48.000;7.840;2023-04-01T11:54:19;11.60;99.90
1225;DHT22;602;48.000;7.840;2023-04-01T11:57:02;11.70;99.90
1225;DHT22;602;48.000;7.840;2023-04-01T11:59:55;11.70;99.90
1225;DHT22;602;48.000;7.840;2023-04-01T12:02:31;11.70;99.90
1225;DHT22;602;48.000;7.840;2023-04-01T12:05:17;11.80;99.90
1225;DHT22;602;48.000;7.840;2023-04-01T12:07:56;11.70;99.90
1225;DHT22;602;48.000;7.840;2023-04-01T12:10:31;11.70;99.90
1225;DHT22;602;48.000;7.840;2023-04-01T12:13:11;11.80;99.90
1225;DHT22;602;48.000;7.840;2023-04-01T12:18:38;11.80;99.90
1225;DHT22;602;48.000;7.840;2023-04-01T12:21:17;11.90;99.90
1225;DHT22;602;48.000;7.840;2023-04-01T12:24:15;11.90;99.90
1225;DHT22;602;48.000;7.840;2023-04-01T12:26:55;11.90;99.90
1225;DHT22;602;48.000;7.840;2023-04-01T12:29:58;11.90;99.90
1225;DHT22;602;48.000;7.840;2023-04-01T12:32:35;11.80;99.90
1225;DHT22;602;48.000;7.840;2023-04-01T12:35:20;11.80;99.90
1225;DHT22;602;48.000;7.840;2023-04-01T12:37:55;11.90;99.90
1225;DHT22;602;48.000;7.840;2023-04-01T12:40:30;11.90;99.90
1225;DHT22;602;48.000;7.840;2023-04-01T12:43:27;12.00;99.90
1225;DHT22;602;48.000;7.840;2023-04-01T12:46:03;11.90;99.90
1225;DHT22;602;48.000;7.840;2023-04-01T12:48:59;12.00;99.90
1225;DHT22;602;48.000;7.840;2023-04-01T12:51:53;12.10;99.90
1225;DHT22;602;48.000;7.840;2023-04-01T12:57:57;12.10;99.90
1225;DHT22;602;48.000;7.840;2023-04-01T13:00:41;12.10;99.90
1225;DHT22;602;48.000;7.840;2023-04-01T13:03:26;12.10;99.90
1225;DHT22;602;48.000;7.840;2023-04-01T13:06:27;12.20;99.90
1225;DHT22;602;48.000;7.840;2023-04-01T13:09:04;12.30;99.90
1225;DHT22;602;48.000;7.840;2023-04-01T13:11:51;12.30;99.90
1225;DHT22;602;48.000;7.840;2023-04-01T13:14:49;12.30;99.90
1225;DHT22;602;48.000;7.840;2023-04-01T13:17:21;12.30;99.90
1225;DHT22;602;48.000;7.840;2023-04-01T13:19:54;12.30;99.90
1225;DHT22;602;48.000;7.840;2023-04-01T13:22:41;12.40;99.90
1225;DHT22;602;48.000;7.840;2023-04-01T13:25:19;12.40;99.90
1225;DHT22;602;48.000;7.840;2023-04-01T13:27:49;12.30;99.90
1225;DHT22;602;48.000;7.840;2023-04-01T13:30:24;12.30;99.90
1225;DHT22;602;48.000;7.840;2023-04-01T13:32:59;12.20;99.90
1225;DHT22;602;48.000;7.840;2023-04-01T13:38:12;12.40;99.90
1225;DHT22;602;48.000;7.840;2023-04-01T13:40:49;12.50;99.90
1225;DHT22;602;48.000;7.840;2023-04-01T13:43:21;12.60;99.90
1225;DHT22;602;48.000;7.840;2023-04-01T13:46:16;12.70;99.90
1225;DHT22;602;48.000;7.840;2023-04-01T13:49:01;12.70;99.90
1225;DHT22;602;48.000;7.840;2023-04-01T13:51:45;12.80;99.90
1225;DHT22;602;48.000;7.840;2023-04-01T13:57:39;12.90;99.90
1225;DHT22;602;48.000;7.840;2023-04-01T14:00:30;13.00;99.90
1225;DHT22;602;48.000;7.840;2023-04-01T14:03:30;13.00;99.90
1225;DHT22;602;48.000;7.840;2023-04-01T14:06:14;13.00;99.90
1225;DHT22;602;48.000;7.840;2023-04-01T14:09:11;13.20;99.90
1225;DHT22;602;48.000;7.840;2023-04-01T14:11:52;13.30;99.90
1225;DHT22;602;48.000;7.840;2023-04-01T14:14:29;13.40;99.90
1225;DHT22;602;48.000;7.840;2023-04-01T14:17:14;13.40;99.90
1225;DHT22;602;48.000;7.840;2023-04-01T14:20:07;13.40;99.90
1225;DHT22;602;48.000;7.840;2023-04-01T14:22:46;13.40;99.90
1225;DHT22;602;48.000;7.840;2023-04-01T14:25:30;13.50;99.90
1225;DHT22;602;48.000;7.840;2023-04-01T14:28:11;13.60;99.90
1225;DHT22;602;48.000;7.840;2023-04-01T14:30:53;13.70;99.90
1225;DHT22;602;48.000;7.840;2023-04-01T14:33:31;13.50;99.90
1225;DHT22;602;48.000;7.840;2023-04-01T14:36:19;13.40;99.90
1225;DHT22;602;48.000;7.840;2023-04-01T14:38:55;13.30;99.90
1225;DHT22;602;48.000;7.840;2023-04-01T14:41:39;13.00;99.90
1225;DHT22;602;48.000;7.840;2023-04-01T14:44:23;13.00;99.90
1225;DHT22;602;48.000;7.840;2023-04-01T14:47:22;12.90;99.90
1225;DHT22;602;48.000;7.840;2023-04-01T14:49:53;12.90;99.90
1225;DHT22;602;48.000;7.840;2023-04-01T14:52:31;13.00;99.90
1225;DHT22;602;48.000;7.840;2023-04-01T14:55:00;12.80;99.90
1225;DHT22;602;48.000;7.840;2023-04-01T14:57:30;12.70;99.90
1225;DHT22;602;48.000;7.840;2023-04-01T15:00:09;12.60;99.90
1225;DHT22;602;48.000;7.840;2023-04-01T15:02:47;12.60;99.90
1225;DHT22;602;48.000;7.840;2023-04-01T15:05:27;12.60;99.90
1225;DHT22;602;48.000;7.840;2023-04-01T15:08:15;12.60;99.90
1225;DHT22;602;48.000;7.840;2023-04-01T15:11:12;12.60;99.90
1225;DHT22;602;48.000;7.840;2023-04-01T15:16:55;12.60;99.90
1225;DHT22;602;48.000;7.840;2023-04-01T15:19:36;12.70;99.90
1225;DHT22;602;48.000;7.840;2023-04-01T15:22:24;12.70;99.90
1225;DHT22;602;48.000;7.840;2023-04-01T15:25:05;12.70;99.90
1225;DHT22;602;48.000;7.840;2023-04-01T15:27:38;12.60;99.90
1225;DHT22;602;48.000;7.840;2023-04-01T15:30:30;12.60;99.90
1225;DHT22;602;48.000;7.840;2023-04-01T15:33:13;12.60;99.90
1225;DHT22;602;48.000;7.840;2023-04-01T15:35:48;12.60;99.90
1225;DHT22;602;48.000;7.840;2023-04-01T15:38:30;12.60;99.90
1225;DHT22;602;48.000;7.840;2023-04-01T15:41:03;12.60;99.90
1225;DHT22;602;48.000;7.840;2023-04-01T15:43:40;12.60;99.90
1225;DHT22;602;48.000;7.840;2023-04-01T15:46:30;12.60;99.90
1225;DHT22;602;48.000;7.840;2023-04-01T15:49:11;12.60;99.90
1225;DHT22;602;48.000;7.840;2023-04-01T15:51:48;12.50;99.90
1225;DHT22;602;48.000;7.840;2023-04-01T15:54:27;12.50;99.90
1225;DHT22;602;48.000;7.840;2023-04-01T15:57:11;12.50;99.90
1225;DHT22;602;48.000;7.840;2023-04-01T16:02:46;12.50;99.90
1225;DHT22;602;48.000;7.840;2023-04-01T16:05:36;12.50;99.90
1225;DHT22;602;48.000;7.840;2023-04-01T16:11:16;12.40;99.90
1225;DHT22;602;48.000;7.840;2023-04-01T16:13:55;12.50;99.90
1225;DHT22;602;48.000;7.840;2023-04-01T16:16:31;12.60;99.90
1225;DHT22;602;48.000;7.840;2023-04-01T16:19:33;12.50;99.90
1225;DHT22;602;48.000;7.840;2023-04-01T16:22:09;12.60;99.90
1225;DHT22;602;48.000;7.840;2023-04-01T16:24:44;12.60;99.90
1225;DHT22;602;48.000;7.840;2023-04-01T16:27:16;12.60;99.90
1225;DHT22;602;48.000;7.840;2023-04-01T16:29:48;12.70;99.90
1225;DHT22;602;48.000;7.840;2023-04-01T16:35:22;12.60;99.90
1225;DHT22;602;48.000;7.840;2023-04-01T16:37:59;12.70;99.90
1225;DHT22;602;48.000;7.840;2023-04-01T16:40:36;12.70;99.90
1225;DHT22;602;48.000;7.840;2023-04-01T16:43:11;12.60;99.90
1225;DHT22;602;48.000;7.840;2023-04-01T16:45:42;12.50;99.90
1225;DHT22;602;48.000;7.840;2023-04-01T16:48:12;12.60;99.90
1225;DHT22;602;48.000;7.840;2023-04-01T16:50:49;12.60;99.90
1225;DHT22;602;48.000;7.840;2023-04-01T16:53:30;12.60;99.90
1225;DHT22;602;48.000;7.840;2023-04-01T16:56:04;12.70;99.90
1225;DHT22;602;48.000;7.840;2023-04-01T16:58:36;12.80;99.90
1225;DHT22;602;48.000;7.840;2023-04-01T17:01:06;12.90;99.90
1225;DHT22;602;48.000;7.840;2023-04-01T17:03:38;12.90;99.90
1225;DHT22;602;48.000;7.840;2023-04-01T17:06:19;12.90;99.90
1225;DHT22;602;48.000;7.840;2023-04-01T17:09:05;12.90;99.90
1225;DHT22;602;48.000;7.840;2023-04-01T17:11:38;12.90;99.90
1225;DHT22;602;48.000;7.840;2023-04-01T17:14:14;12.90;99.90
1225;DHT22;602;48.000;7.840;2023-04-01T17:16:55;12.90;99.90
1225;DHT22;602;48.000;7.840;2023-04-01T17:19:42;12.90;99.90
1225;DHT22;602;48.000;7.840;2023-04-01T17:22:25;12.80;99.90
1225;DHT22;602;48.000;7.840;2023-04-01T17:25:04;12.80;99.90
1225;DHT22;602;48.000;7.840;2023-04-01T17:27:43;12.80;99.90
1225;DHT22;602;48.000;7.840;2023-04-01T17:30:27;12.80;99.90
1225;DHT22;602;48.000;7.840;2023-04-01T17:33:14;12.80;99.90
1225;DHT22;602;48.000;7.840;2023-04-01T17:35:54;12.80;99.90
1225;DHT22;602;48.000;7.840;2023-04-01T17:38:41;12.80;99.90
1225;DHT22;602;48.000;7.840;2023-04-01T17:41:20;12.90;99.90
1225;DHT22;602;48.000;7.840;2023-04-01T17:43:55;12.90;99.90
1225;DHT22;602;48.000;7.840;2023-04-01T17:46:34;12.80;99.90
1225;DHT22;602;48.000;7.840;2023-04-01T17:49:19;12.70;99.90
1225;DHT22;602;48.000;7.840;2023-04-01T17:51:53;12.70;99.90
1225;DHT22;602;48.000;7.840;2023-04-01T17:54:27;12.60;99.90
1225;DHT22;602;48.000;7.840;2023-04-01T17:57:11;12.60;99.90
1225;DHT22;602;48.000;7.840;2023-04-01T17:59:54;12.60;99.90
1225;DHT22;602;48.000;7.840;2023-04-01T18:02:31;12.60;99.90
1225;DHT22;602;48.000;7.840;2023-04-01T18:05:26;12.50;99.90
1225;DHT22;602;48.000;7.840;2023-04-01T18:08:08;12.50;99.90
1225;DHT22;602;48.000;7.840;2023-04-01T18:10:41;12.40;99.90
1225;DHT22;602;48.000;7.840;2023-04-01T18:13:42;12.40;99.90
1225;DHT22;602;48.000;7.840;2023-04-01T18:16:27;12.40;99.90
1225;DHT22;602;48.000;7.840;2023-04-01T18:19:02;12.30;99.90
1225;DHT22;602;48.000;7.840;2023-04-01T18:21:40;12.30;99.90
1225;DHT22;602;48.000;7.840;2023-04-01T18:24:16;12.20;99.90
1225;DHT22;602;48.000;7.840;2023-04-01T18:26:49;12.20;99.90
1225;DHT22;602;48.000;7.840;2023-04-01T18:29:26;12.10;99.90
1225;DHT22;602;48.000;7.840;2023-04-01T18:32:11;12.20;99.90
1225;DHT22;602;48.000;7.840;2023-04-01T18:34:48;12.10;99.90
1225;DHT22;602;48.000;7.840;2023-04-01T18:37:19;12.00;99.90
1225;DHT22;602;48.000;7.840;2023-04-01T18:39:51;12.00;99.90
1225;DHT22;602;48.000;7.840;2023-04-01T18:42:24;11.90;99.90
1225;DHT22;602;48.000;7.840;2023-04-01T18:44:59;11.90;99.90
1225;DHT22;602;48.000;7.840;2023-04-01T18:47:35;11.90;99.90
1225;DHT22;602;48.000;7.840;2023-04-01T18:50:15;11.90;99.90